Time;durP1;ratioP1;P1;durP2;ratioP2;P2;SDS_P1;SDS_P2;PMS_P1;PMS_P2;Temp;Humidity;BMP_temperature;BMP_pressure;BME280_temperature;BME280_humidity;BME280_pressure;Samples;Min_cycle;Max_cycle;Signal;HPM_P1;HPM_P2
2022/08/23 00:01:30;;;;;;;7.45;2.83;;;21.40;99.90;;;;;;5119795;27;20016;-73
2022/08/23 00:04:04;;;;;;;4.43;2.58;;;21.30;99.90;;;;;;5119943;28;20020;-73
2022/08/23 00:06:31;;;;;;;5.68;2.40;;;21.40;99.90;;;;;;5109932;28;20441;-74
2022/08/23 00:08:57;;;;;;;5.10;2.15;;;21.40;99.90;;;;;;5119954;28;20384;-74
2022/08/23 00:11:34;;;;;;;4.25;2.40;;;21.40;99.90;;;;;;5115337;27;20019;-74
2022/08/23 00:14:08;;;;;;;2.88;2.20;;;21.40;99.90;;;;;;5111536;28;20023;-74
2022/08/23 00:16:34;;;;;;;5.32;2.10;;;21.40;99.90;;;;;;5118718;28;20028;-74
2022/08/23 00:19:06;;;;;;;2.53;2.00;;;21.40;99.90;;;;;;5106164;28;20028;-74
2022/08/23 00:21:32;;;;;;;4.68;1.90;;;21.30;99.90;;;;;;5113489;28;20047;-74
2022/08/23 00:23:58;;;;;;;3.20;2.35;;;21.40;99.90;;;;;;5119634;28;20051;-74
2022/08/23 00:26:25;;;;;;;7.63;2.60;;;21.30;99.90;;;;;;5116455;28;20078;-74
2022/08/23 00:28:51;;;;;;;5.00;2.40;;;21.40;99.90;;;;;;5118918;27;20494;-74
2022/08/23 00:31:19;;;;;;;4.07;2.50;;;21.30;99.90;;;;;;5116807;28;20040;-73
2022/08/23 00:33:44;;;;;;;4.72;2.92;;;21.30;99.90;;;;;;5117771;28;20396;-74
2022/08/23 00:36:11;;;;;;;3.65;2.13;;;21.30;99.90;;;;;;5119210;28;20122;-74
2022/08/23 00:38:36;;;;;;;2.80;1.92;;;21.30;99.90;;;;;;5116524;28;20506;-74
2022/08/23 00:41:03;;;;;;;6.00;2.40;;;21.30;99.90;;;;;;5119229;28;20098;-74
2022/08/23 00:49:11;;;;;;;2.92;1.90;;;21.30;99.90;;;;;;5112979;28;20511;-73
2022/08/23 00:51:41;;;;;;;;;;;21.30;99.90;;;;;;5117952;28;20027;-74
2022/08/23 00:54:08;;;;;;;4.25;2.08;;;21.30;99.90;;;;;;5102605;28;19911;-74
2022/08/23 00:56:35;;;;;;;3.97;2.13;;;21.20;99.90;;;;;;5118727;28;20028;-74
2022/08/23 00:59:01;;;;;;;4.00;2.03;;;21.20;99.90;;;;;;5117031;28;20038;-73
2022/08/23 01:01:27;;;;;;;5.22;2.35;;;21.20;99.90;;;;;;5118560;28;20050;-73
2022/08/23 01:03:56;;;;;;;4.35;2.00;;;21.20;99.90;;;;;;5118655;28;20024;-73
2022/08/23 01:06:42;;;;;;;3.15;2.05;;;21.20;99.90;;;;;;5117201;28;20034;-74
2022/08/23 01:09:12;;;;;;;5.55;2.00;;;21.20;99.90;;;;;;5107773;28;20051;-73
2022/08/23 01:11:59;;;;;;;2.40;1.90;;;21.10;99.90;;;;;;5118660;28;20024;-73
2022/08/23 01:14:31;;;;;;;6.00;2.17;;;21.10;99.90;;;;;;5117281;28;20077;-73
2022/08/23 01:17:04;;;;;;;5.20;2.47;;;21.10;99.90;;;;;;5114768;28;20419;-74
2022/08/23 01:19:38;;;;;;;3.63;1.98;;;21.10;99.90;;;;;;5109348;28;20077;-74
2022/08/23 01:22:11;;;;;;;4.97;1.95;;;21.10;99.90;;;;;;5110494;28;20029;-75
2022/08/23 01:24:38;;;;;;;6.20;2.20;;;21.10;99.90;;;;;;5118154;28;20451;-74
2022/08/23 01:27:05;;;;;;;4.75;2.08;;;21.10;99.90;;;;;;5117899;28;20512;-74
2022/08/23 01:29:30;;;;;;;5.05;1.98;;;21.10;99.90;;;;;;5118205;28;20103;-74
2022/08/23 01:31:57;;;;;;;4.22;2.22;;;21.10;99.90;;;;;;5116553;28;20058;-73
2022/08/23 01:34:27;;;;;;;3.88;1.92;;;21.10;99.90;;;;;;5118115;28;20016;-74
2022/08/23 01:36:55;;;;;;;5.70;2.38;;;21.10;99.90;;;;;;5118196;28;20027;-74
2022/08/23 01:39:21;;;;;;;5.78;2.10;;;21.10;99.90;;;;;;5117266;28;20509;-74
2022/08/23 01:41:47;;;;;;;3.20;2.03;;;21.10;99.90;;;;;;5118199;28;20027;-74
2022/08/23 01:44:13;;;;;;;4.32;1.90;;;21.10;99.90;;;;;;5117881;28;20491;-73
2022/08/23 01:46:44;;;;;;;3.85;1.90;;;21.00;99.90;;;;;;5114802;28;20031;-73
2022/08/23 01:49:11;;;;;;;4.53;1.95;;;21.00;99.90;;;;;;5117946;28;20016;-74
2022/08/23 01:51:37;;;;;;;2.33;1.95;;;21.10;99.90;;;;;;5109112;28;20119;-74
2022/08/23 01:54:03;;;;;;;3.70;2.10;;;21.00;99.90;;;;;;5110514;28;20111;-74
2022/08/23 01:56:31;;;;;;;3.45;1.80;;;21.00;99.90;;;;;;5118004;28;20023;-74
2022/08/23 01:58:57;;;;;;;5.35;3.00;;;21.00;99.90;;;;;;5117651;28;20384;-74
2022/08/23 02:01:23;;;;;;;2.70;1.90;;;21.00;99.90;;;;;;5105732;28;20671;-74
2022/08/23 02:03:49;;;;;;;3.67;2.08;;;21.00;99.90;;;;;;5107219;28;20059;-74
2022/08/23 02:06:15;;;;;;;2.70;1.77;;;21.00;99.90;;;;;;5116080;28;20027;-74
2022/08/23 02:11:27;;;;;;;3.60;2.15;;;21.00;99.90;;;;;;5117109;28;20026;-74
2022/08/23 02:13:58;;;;;;;3.40;2.05;;;21.00;99.90;;;;;;5110379;28;20034;-74
2022/08/23 02:16:32;;;;;;;2.42;1.75;;;21.00;99.90;;;;;;5117099;28;20459;-74
2022/08/23 02:19:01;;;;;;;2.70;2.15;;;21.00;99.90;;;;;;5109540;28;20031;-74
2022/08/23 02:21:30;;;;;;;4.50;1.70;;;21.00;99.90;;;;;;5113857;28;20034;-74
2022/08/23 02:23:57;;;;;;;5.38;2.20;;;21.00;99.90;;;;;;5117042;28;20396;-74
2022/08/23 02:26:23;;;;;;;3.50;1.63;;;21.00;99.90;;;;;;5116807;28;20063;-74
2022/08/23 02:28:52;;;;;;;3.55;2.17;;;21.00;99.90;;;;;;5117477;28;20024;-74
2022/08/23 02:31:20;;;;;;;4.43;1.70;;;21.00;99.90;;;;;;5116971;28;20047;-74
2022/08/23 02:33:45;;;;;;;4.78;1.90;;;21.00;99.90;;;;;;5117304;28;20015;-74
2022/08/23 02:36:11;;;;;;;4.00;2.00;;;20.90;99.90;;;;;;5112303;28;20039;-74
2022/08/23 02:38:38;;;;;;;4.55;2.30;;;20.90;99.90;;;;;;5117509;28;20131;-74
2022/08/23 02:41:04;;;;;;;8.90;2.40;;;20.90;99.90;;;;;;5115819;28;20027;-74
2022/08/23 02:43:30;;;;;;;4.20;2.50;;;20.90;99.90;;;;;;5116990;28;20403;-74
2022/08/23 02:45:56;;;;;;;3.50;1.95;;;20.90;99.90;;;;;;5114342;28;20024;-73
2022/08/23 02:48:21;;;;;;;2.85;2.00;;;20.90;99.90;;;;;;5115785;28;20016;-74
2022/08/23 02:50:48;;;;;;;4.03;2.08;;;20.90;99.90;;;;;;5118026;28;20019;-74
2022/08/23 02:53:16;;;;;;;3.72;1.95;;;20.90;99.90;;;;;;5113979;28;20480;-74
2022/08/23 02:55:46;;;;;;;5.45;1.90;;;20.90;99.90;;;;;;5116193;28;20507;-73
2022/08/23 02:58:12;;;;;;;3.58;2.20;;;20.90;99.90;;;;;;5110083;28;20016;-74
2022/08/23 03:00:38;;;;;;;2.38;1.80;;;20.90;99.90;;;;;;5120761;28;20027;-74
2022/08/23 03:03:05;;;;;;;3.97;2.03;;;20.90;99.90;;;;;;5120752;28;20024;-74
2022/08/23 03:05:32;;;;;;;8.27;2.05;;;20.90;99.90;;;;;;5119885;28;20024;-74
2022/08/23 03:07:57;;;;;;;4.70;2.13;;;20.90;99.90;;;;;;5118192;28;20519;-74
2022/08/23 03:10:23;;;;;;;3.78;2.13;;;20.90;99.90;;;;;;5115325;28;20068;-74
2022/08/23 03:12:49;;;;;;;7.05;2.20;;;20.90;99.90;;;;;;5120805;28;20028;-74
2022/08/23 03:15:15;;;;;;;3.97;1.98;;;20.90;99.90;;;;;;5120267;28;20030;-73
2022/08/23 03:17:41;;;;;;;3.65;2.28;;;20.90;99.90;;;;;;5111327;28;20036;-74
2022/08/23 03:20:07;;;;;;;2.17;1.65;;;20.90;99.90;;;;;;5118709;28;20024;-74
2022/08/23 03:22:33;;;;;;;4.57;2.00;;;20.90;99.90;;;;;;5120945;28;20050;-74
2022/08/23 03:25:00;;;;;;;4.15;1.77;;;20.90;99.90;;;;;;5115071;28;20026;-74
2022/08/23 03:27:26;;;;;;;4.40;2.10;;;20.90;99.90;;;;;;5118945;28;20114;-73
2022/08/23 03:29:52;;;;;;;3.40;1.83;;;20.90;99.90;;;;;;5118630;28;20031;-73
2022/08/23 03:32:18;;;;;;;3.80;2.05;;;20.90;99.90;;;;;;5120387;28;20499;-74
2022/08/23 03:34:44;;;;;;;4.72;2.05;;;20.90;99.90;;;;;;5120503;28;20012;-74
2022/08/23 03:37:10;;;;;;;4.13;2.30;;;20.90;99.90;;;;;;5120368;28;20019;-74
2022/08/23 03:39:36;;;;;;;3.90;2.10;;;20.90;99.90;;;;;;5118565;28;20027;-74
2022/08/23 03:42:02;;;;;;;4.65;1.98;;;20.90;99.90;;;;;;5120194;27;20027;-74
2022/08/23 03:44:28;;;;;;;5.75;2.20;;;20.90;99.90;;;;;;5119028;28;20551;-74
2022/08/23 03:46:54;;;;;;;2.78;1.73;;;20.90;99.90;;;;;;5119904;28;20060;-74
2022/08/23 03:49:19;;;;;;;3.70;1.90;;;20.90;99.90;;;;;;5119538;28;20042;-74
2022/08/23 03:51:45;;;;;;;3.75;1.90;;;20.90;99.90;;;;;;5118992;28;20413;-74
2022/08/23 03:54:11;;;;;;;3.67;1.80;;;20.90;99.90;;;;;;5118655;28;20031;-74
2022/08/23 03:56:48;;;;;;;2.55;2.05;;;20.90;99.90;;;;;;5119185;28;20020;-75
2022/08/23 03:59:14;;;;;;;2.90;1.98;;;20.80;99.90;;;;;;5119483;28;20103;-74
2022/08/23 04:01:40;;;;;;;3.83;2.20;;;20.80;99.90;;;;;;5118170;28;20047;-74
2022/08/23 04:04:06;;;;;;;4.60;2.20;;;20.80;99.90;;;;;;5117801;28;20039;-74
2022/08/23 04:06:32;;;;;;;4.20;2.00;;;20.80;99.90;;;;;;5119840;28;20020;-74
2022/08/23 04:08:58;;;;;;;4.30;2.22;;;20.80;99.90;;;;;;5119887;28;20024;-74
2022/08/23 04:11:24;;;;;;;6.90;2.00;;;20.80;99.90;;;;;;5119022;28;20016;-74
2022/08/23 04:13:50;;;;;;;4.85;1.92;;;20.80;99.90;;;;;;5119776;28;20492;-74
2022/08/23 04:16:17;;;;;;;4.45;1.85;;;20.80;99.90;;;;;;5119280;27;20522;-74
2022/08/23 04:18:44;;;;;;;5.97;1.95;;;20.80;99.90;;;;;;5118510;28;20048;-75
2022/08/23 04:21:13;;;;;;;3.25;1.70;;;20.70;99.90;;;;;;5118153;28;20023;-74
2022/08/23 04:23:39;;;;;;;4.85;1.80;;;20.70;99.90;;;;;;5108194;28;20432;-74
2022/08/23 04:26:06;;;;;;;7.20;1.80;;;20.70;99.90;;;;;;5118967;28;20118;-74
2022/08/23 04:28:32;;;;;;;2.60;2.00;;;20.70;99.90;;;;;;5119497;28;20400;-74
2022/08/23 04:31:02;;;;;;;2.70;1.95;;;20.70;99.90;;;;;;5115111;28;20023;-74
2022/08/23 04:33:31;;;;;;;3.65;1.85;;;20.70;99.90;;;;;;5116785;28;20016;-74
2022/08/23 04:35:58;;;;;;;4.63;1.73;;;20.60;99.90;;;;;;5119423;28;20507;-73
2022/08/23 04:38:24;;;;;;;2.65;2.03;;;20.60;99.90;;;;;;5119147;28;20022;-74
2022/08/23 04:43:34;;;;;;;2.50;1.70;;;20.60;99.90;;;;;;5118897;28;20034;-74
2022/08/23 04:46:00;;;;;;;2.33;1.70;;;20.60;99.90;;;;;;5113604;28;20101;-74
2022/08/23 04:48:26;;;;;;;2.42;1.80;;;20.60;99.90;;;;;;5119298;28;20098;-74
2022/08/23 04:50:52;;;;;;;5.47;2.00;;;20.60;99.90;;;;;;5117508;28;20458;-74
2022/08/23 04:53:17;;;;;;;3.10;1.63;;;20.60;99.90;;;;;;5118935;28;20028;-74
2022/08/23 04:55:43;;;;;;;4.00;2.03;;;20.60;99.90;;;;;;5118650;28;20370;-74
2022/08/23 04:58:10;;;;;;;3.97;1.92;;;20.50;99.90;;;;;;5119051;28;20028;-74
2022/08/23 05:00:35;;;;;;;7.05;2.20;;;20.50;99.90;;;;;;5115670;28;20020;-74
2022/08/23 05:03:01;;;;;;;3.13;1.65;;;20.50;99.90;;;;;;5109637;28;20043;-74
2022/08/23 05:05:27;;;;;;;3.75;2.17;;;20.50;99.90;;;;;;5104507;28;20032;-74
2022/08/23 05:07:54;;;;;;;4.13;1.88;;;20.50;99.90;;;;;;5118835;28;20034;-74
2022/08/23 05:10:20;;;;;;;3.03;1.85;;;20.40;99.90;;;;;;5118487;28;20052;-74
2022/08/23 05:12:47;;;;;;;2.72;1.80;;;20.40;99.90;;;;;;5116107;28;20483;-74
2022/08/23 05:15:13;;;;;;;4.00;2.20;;;20.30;99.90;;;;;;5118256;28;20016;-74
2022/08/23 05:17:39;;;;;;;3.92;2.35;;;20.30;99.90;;;;;;5116658;28;20040;-73
2022/08/23 05:20:07;;;;;;;6.50;2.50;;;20.20;99.90;;;;;;5118245;28;20023;-74
2022/08/23 05:22:35;;;;;;;3.63;2.03;;;20.20;99.90;;;;;;5118461;28;20055;-75
2022/08/23 05:25:01;;;;;;;3.90;2.30;;;20.20;99.90;;;;;;5105358;28;20066;-74
2022/08/23 05:27:27;;;;;;;5.68;2.40;;;20.20;99.90;;;;;;5118112;28;20043;-74
2022/08/23 05:29:53;;;;;;;10.18;2.80;;;20.30;99.90;;;;;;5117784;28;20027;-74
2022/08/23 05:32:20;;;;;;;3.15;2.10;;;20.30;99.90;;;;;;5118296;28;20023;-74
2022/08/23 05:34:46;;;;;;;4.88;2.50;;;20.40;99.90;;;;;;5113398;28;20019;-74
2022/08/23 05:37:12;;;;;;;3.88;2.33;;;20.40;99.90;;;;;;5114886;28;20038;-74
2022/08/23 05:39:38;;;;;;;4.38;3.00;;;20.40;99.90;;;;;;5116082;28;20028;-74
2022/08/23 05:42:07;;;;;;;4.03;2.17;;;20.50;99.90;;;;;;5103426;28;20054;-74
2022/08/23 05:44:33;;;;;;;4.43;2.42;;;20.50;99.90;;;;;;5117664;28;20016;-74
2022/08/23 05:46:58;;;;;;;4.15;2.58;;;20.50;99.90;;;;;;5112784;28;20031;-74
2022/08/23 05:49:24;;;;;;;7.90;2.45;;;20.60;99.90;;;;;;5106564;28;20049;-74
2022/08/23 05:51:50;;;;;;;3.95;2.47;;;20.60;99.90;;;;;;5117966;28;20023;-74
2022/08/23 05:54:16;;;;;;;3.53;2.45;;;20.60;99.90;;;;;;5116329;28;20024;-74
2022/08/23 05:56:43;;;;;;;5.82;2.60;;;20.60;99.90;;;;;;5116292;28;20407;-73
2022/08/23 05:59:12;;;;;;;4.80;2.50;;;20.60;99.90;;;;;;5117568;28;20065;-74
2022/08/23 06:01:38;;;;;;;4.05;2.60;;;20.70;99.90;;;;;;5117196;28;20023;-74
2022/08/23 06:04:08;;;;;;;2.65;2.15;;;20.80;99.90;;;;;;5117427;28;20095;-73
2022/08/23 06:06:34;;;;;;;7.38;2.33;;;20.80;99.90;;;;;;5112983;28;20496;-74
2022/08/23 06:09:01;;;;;;;5.10;2.67;;;20.90;99.90;;;;;;5104862;28;20016;-74
2022/08/23 06:11:28;;;;;;;5.65;2.03;;;20.90;99.90;;;;;;5115603;28;20024;-74
2022/08/23 06:13:57;;;;;;;8.45;3.00;;;21.00;99.90;;;;;;5117445;28;20024;-75
2022/08/23 06:16:29;;;;;;;4.50;2.53;;;21.10;99.90;;;;;;5116684;28;20055;-76
2022/08/23 06:18:57;;;;;;;4.55;2.42;;;21.20;99.90;;;;;;5113491;28;20076;-76
2022/08/23 06:21:24;;;;;;;4.50;2.67;;;21.20;99.90;;;;;;5117501;28;20023;-76
2022/08/23 06:23:51;;;;;;;3.35;2.38;;;21.30;99.90;;;;;;5107263;28;20106;-76
2022/08/23 06:26:23;;;;;;;5.50;1.83;;;21.40;99.90;;;;;;5115606;28;20054;-75
2022/08/23 06:28:53;;;;;;;5.55;2.50;;;21.40;99.90;;;;;;5105136;28;20015;-75
2022/08/23 06:31:44;;;;;;;5.50;2.05;;;21.60;99.90;;;;;;5116766;28;20018;-76
2022/08/23 06:34:07;;;;;;;2.85;2.17;;;21.70;99.90;;;;;;5116951;28;20027;-75
2022/08/23 06:36:33;;;;;;;13.40;1.90;;;21.80;99.90;;;;;;5105179;28;20042;-75
2022/08/23 06:38:59;;;;;;;3.90;2.05;;;21.80;99.90;;;;;;5112140;28;20065;-76
2022/08/23 06:41:25;;;;;;;3.05;2.00;;;21.80;99.90;;;;;;5110341;28;20019;-76
2022/08/23 06:43:51;;;;;;;5.55;2.97;;;21.80;99.90;;;;;;5111028;28;20030;-76
2022/08/23 06:46:22;;;;;;;3.67;2.25;;;21.80;99.90;;;;;;5089368;28;20111;-76
2022/08/23 06:48:48;;;;;;;3.10;1.50;;;21.90;99.90;;;;;;5097241;28;20016;-76
2022/08/23 06:51:21;;;;;;;4.55;2.13;;;21.90;99.90;;;;;;5099445;28;20108;-75
2022/08/23 06:53:47;;;;;;;4.82;2.17;;;21.90;99.90;;;;;;5111329;28;20012;-75
2022/08/23 06:56:13;;;;;;;3.83;1.83;;;21.80;99.90;;;;;;5104705;28;20023;-76
2022/08/23 06:58:39;;;;;;;6.15;2.20;;;21.80;99.90;;;;;;5106966;28;20016;-76
2022/08/23 07:01:12;;;;;;;3.78;1.75;;;21.80;99.90;;;;;;5086828;28;20500;-76
2022/08/23 07:03:38;;;;;;;6.00;2.00;;;21.80;99.90;;;;;;5132373;28;20028;-77
2022/08/23 07:06:04;;;;;;;6.35;2.13;;;21.70;99.90;;;;;;5107928;28;20111;-76
2022/08/23 07:08:30;;;;;;;3.55;2.13;;;21.70;99.90;;;;;;5115692;28;20098;-76
2022/08/23 07:10:56;;;;;;;4.10;1.75;;;21.70;99.90;;;;;;5104146;28;20019;-76
2022/08/23 07:13:22;;;;;;;5.90;1.92;;;21.70;99.90;;;;;;5115225;28;20023;-76
2022/08/23 07:15:48;;;;;;;3.88;1.60;;;21.70;99.90;;;;;;5116728;28;20028;-76
2022/08/23 07:18:14;;;;;;;5.28;1.67;;;21.70;99.90;;;;;;5106246;28;20015;-77
2022/08/23 07:20:39;;;;;;;6.95;1.88;;;21.80;99.90;;;;;;5116815;28;20044;-76
2022/08/23 07:23:05;;;;;;;4.80;2.15;;;21.80;99.90;;;;;;5114766;28;20024;-76
2022/08/23 07:25:31;;;;;;;5.82;1.67;;;21.90;99.90;;;;;;5116301;28;20404;-76
2022/08/23 07:27:57;;;;;;;4.15;1.90;;;22.10;99.90;;;;;;5115536;28;20028;-76
2022/08/23 07:30:24;;;;;;;3.72;2.42;;;22.20;99.90;;;;;;5097511;28;20086;-75
2022/08/23 07:32:49;;;;;;;6.60;1.70;;;22.40;99.90;;;;;;5104617;28;20026;-76
2022/08/23 07:35:15;;;;;;;3.08;1.88;;;22.50;99.90;;;;;;5116336;28;20881;-76
2022/08/23 07:37:41;;;;;;;4.72;1.80;;;22.60;99.90;;;;;;5109175;28;20511;-77
2022/08/23 07:40:08;;;;;;;3.17;1.55;;;22.80;99.90;;;;;;5100508;28;20544;-76
2022/08/23 07:42:34;;;;;;;1.88;1.40;;;23.00;99.90;;;;;;5097064;28;20031;-75
2022/08/23 07:45:01;;;;;;;2.85;1.13;;;23.00;99.90;;;;;;5119090;28;20019;-75
2022/08/23 07:47:28;;;;;;;1.70;1.30;;;23.00;99.90;;;;;;5114994;28;20024;-77
2022/08/23 07:49:55;;;;;;;7.22;1.45;;;22.80;99.90;;;;;;5119026;28;20026;-76
2022/08/23 07:52:21;;;;;;;2.78;1.27;;;22.70;99.90;;;;;;5106527;28;20039;-77
2022/08/23 07:54:47;;;;;;;4.28;1.30;;;22.70;99.90;;;;;;5118851;28;20016;-75
2022/08/23 07:57:13;;;;;;;8.00;1.67;;;22.60;99.90;;;;;;5116524;28;20034;-76
2022/08/23 07:59:38;;;;;;;3.10;1.55;;;22.50;99.90;;;;;;5111731;28;20062;-77
2022/08/23 08:02:04;;;;;;;3.83;1.65;;;22.60;99.90;;;;;;5112122;27;20052;-77
2022/08/23 08:04:30;;;;;;;5.45;1.48;;;22.70;99.90;;;;;;5101406;28;20094;-76
2022/08/23 08:06:57;;;;;;;5.80;1.60;;;22.90;99.90;;;;;;5115294;28;20024;-76
2022/08/23 08:09:23;;;;;;;2.63;1.40;;;23.20;99.90;;;;;;5117476;28;20019;-76
2022/08/23 08:11:51;;;;;;;2.45;1.00;;;23.50;99.90;;;;;;5105934;28;20155;-76
2022/08/23 08:14:17;;;;;;;7.90;1.40;;;23.50;99.90;;;;;;5117555;28;20547;-76
2022/08/23 08:16:49;;;;;;;2.58;1.05;;;23.70;99.90;;;;;;5116497;28;20035;-76
2022/08/23 08:19:17;;;;;;;1.92;1.27;;;23.80;99.90;;;;;;5117192;28;20026;-77
2022/08/23 08:21:44;;;;;;;6.85;1.38;;;23.90;99.90;;;;;;5118208;28;20020;-77
2022/08/23 08:24:12;;;;;;;3.60;1.33;;;23.90;99.90;;;;;;5107122;28;20030;-77
2022/08/23 08:26:40;;;;;;;2.00;1.20;;;24.00;99.90;;;;;;5119193;28;20044;-77
2022/08/23 08:29:06;;;;;;;1.77;1.13;;;24.10;99.90;;;;;;5119499;28;20027;-76
2022/08/23 08:31:33;;;;;;;1.50;0.90;;;24.20;99.90;;;;;;5112312;28;20024;-76
2022/08/23 08:33:58;;;;;;;3.53;1.52;;;24.00;99.90;;;;;;5118023;28;20020;-75
2022/08/23 08:36:34;;;;;;;2.13;1.13;;;23.90;99.90;;;;;;5119392;28;20518;-76
2022/08/23 08:39:01;;;;;;;2.38;1.10;;;23.90;99.90;;;;;;5117645;28;20031;-76
2022/08/23 08:41:42;;;;;;;1.75;1.00;;;24.00;99.90;;;;;;5104890;28;20027;-76
2022/08/23 08:44:26;;;;;;;1.35;1.05;;;24.10;99.90;;;;;;5111692;28;20388;-76
2022/08/23 08:46:56;;;;;;;2.85;1.40;;;24.30;99.90;;;;;;5114222;28;20487;-75
2022/08/23 08:49:54;;;;;;;3.53;1.27;;;24.20;99.90;;;;;;5118586;28;20519;-75
2022/08/23 08:52:24;;;;;;;1.65;0.85;;;24.40;99.90;;;;;;5112297;28;20032;-75
2022/08/23 08:55:00;;;;;;;3.92;1.05;;;24.60;99.90;;;;;;5116627;28;20102;-76
2022/08/23 08:57:26;;;;;;;2.90;1.23;;;25.00;99.90;;;;;;5115394;28;20026;-77
2022/08/23 09:00:00;;;;;;;2.80;1.38;;;25.00;99.90;;;;;;5118607;28;20024;-77
2022/08/23 09:02:32;;;;;;;1.55;0.82;;;25.00;99.90;;;;;;5109484;28;20024;-77
2022/08/23 09:05:01;;;;;;;2.05;0.90;;;25.20;99.90;;;;;;5118609;28;20028;-77
2022/08/23 09:07:48;;;;;;;3.22;1.08;;;25.00;99.90;;;;;;5118664;28;20038;-77
2022/08/23 09:10:35;;;;;;;3.05;1.30;;;24.60;99.90;;;;;;5118104;28;20510;-77
2022/08/23 09:13:33;;;;;;;4.40;1.05;;;24.30;99.90;;;;;;5118547;28;20092;-78
2022/08/23 09:16:44;;;;;;;4.95;1.52;;;24.10;99.90;;;;;;5118327;28;20083;-77
2022/08/23 09:19:10;;;;;;;1.85;0.73;;;24.30;99.90;;;;;;5106492;28;20027;-76
2022/08/23 09:21:59;;;;;;;2.67;0.93;;;24.50;99.90;;;;;;5118078;28;20076;-77
2022/08/23 09:24:26;;;;;;;2.08;1.05;;;24.60;99.90;;;;;;5109231;28;20024;-77
2022/08/23 09:26:52;;;;;;;2.00;1.30;;;24.60;99.90;;;;;;5117742;27;20048;-77
2022/08/23 09:29:23;;;;;;;3.47;1.10;;;24.70;99.90;;;;;;5117981;28;20739;-77
2022/08/23 09:31:57;;;;;;;1.23;0.77;;;24.80;99.90;;;;;;5117404;28;20391;-76
2022/08/23 09:34:33;;;;;;;2.22;1.00;;;24.80;99.90;;;;;;5113040;28;20076;-77
2022/08/23 09:37:21;;;;;;;1.42;0.95;;;25.00;99.90;;;;;;5115697;28;20030;-77
2022/08/23 09:40:10;;;;;;;1.83;1.10;;;25.20;99.90;;;;;;5098455;28;20088;-77
2022/08/23 09:42:38;;;;;;;4.13;1.17;;;25.40;99.90;;;;;;5097911;28;20071;-76
2022/08/23 09:45:24;;;;;;;4.30;1.08;;;25.50;99.90;;;;;;5099664;28;20023;-77
2022/08/23 09:47:49;;;;;;;1.10;0.82;;;25.60;99.90;;;;;;5111940;28;20008;-77
2022/08/23 09:50:28;;;;;;;1.52;1.20;;;25.80;99.90;;;;;;5116825;28;20022;-76
2022/08/23 09:53:05;;;;;;;3.92;1.05;;;25.80;99.90;;;;;;5112107;28;20024;-76
2022/08/23 09:55:30;;;;;;;1.58;0.70;;;25.80;99.90;;;;;;5105701;28;20034;-76
2022/08/23 09:57:59;;;;;;;4.45;1.10;;;25.80;99.90;;;;;;5114481;27;20024;-77
2022/08/23 10:00:32;;;;;;;3.00;0.85;;;25.80;99.90;;;;;;5109829;28;20028;-77
2022/08/23 10:03:18;;;;;;;3.22;0.90;;;25.40;99.90;;;;;;5114218;28;20081;-76
2022/08/23 10:05:51;;;;;;;3.15;0.85;;;25.30;99.90;;;;;;5099591;28;20423;-77
2022/08/23 10:08:28;;;;;;;3.38;0.70;;;25.50;99.90;;;;;;5099390;28;20099;-77
2022/08/23 10:11:17;;;;;;;1.77;1.13;;;25.30;99.90;;;;;;5097740;28;20047;-76
2022/08/23 10:13:44;;;;;;;3.17;0.95;;;25.50;99.90;;;;;;5103510;28;20043;-77
2022/08/23 10:16:15;;;;;;;1.85;0.70;;;25.50;99.90;;;;;;5109195;28;20027;-77
2022/08/23 10:18:58;;;;;;;0.98;0.85;;;25.50;99.90;;;;;;5116996;28;20726;-76
2022/08/23 10:21:40;;;;;;;2.05;0.95;;;25.80;99.90;;;;;;5112665;28;20027;-76
2022/08/23 10:24:15;;;;;;;1.30;0.80;;;26.10;99.90;;;;;;5111572;28;20027;-76
2022/08/23 10:26:53;;;;;;;1.60;0.80;;;26.50;99.90;;;;;;5116464;28;20044;-76
2022/08/23 10:29:41;;;;;;;1.83;0.77;;;26.90;99.90;;;;;;5116491;28;20048;-76
2022/08/23 10:32:37;;;;;;;1.40;0.60;;;27.30;99.90;;;;;;5107095;28;20047;-77
2022/08/23 10:35:24;;;;;;;1.75;0.98;;;27.30;99.90;;;;;;5112200;28;20019;-75
2022/08/23 10:38:16;;;;;;;1.42;1.20;;;27.50;99.90;;;;;;5112566;28;20074;-75
2022/08/23 10:41:16;;;;;;;2.63;1.20;;;27.60;99.90;;;;;;5112766;28;20023;-75
2022/08/23 10:43:56;;;;;;;3.92;0.80;;;27.80;99.90;;;;;;5114339;28;20423;-76
2022/08/23 10:46:22;;;;;;;;;;;27.90;99.90;;;;;;5114903;28;20119;-76
2022/08/23 10:48:58;;;;;;;2.28;0.93;;;27.80;99.90;;;;;;5116979;28;19939;-76
2022/08/23 10:51:31;;;;;;;3.22;1.10;;;27.70;99.90;;;;;;5115455;28;20024;-76
2022/08/23 10:54:00;;;;;;;1.70;0.88;;;27.40;99.90;;;;;;5111054;28;20083;-76
2022/08/23 10:56:27;;;;;;;2.05;0.93;;;27.20;99.90;;;;;;5116929;28;20031;-76
2022/08/23 10:59:08;;;;;;;1.42;0.90;;;27.10;99.90;;;;;;5107485;28;20024;-75
2022/08/23 11:01:56;;;;;;;1.13;0.80;;;27.30;99.90;;;;;;5116771;28;20027;-76
2022/08/23 11:04:25;;;;;;;1.52;0.80;;;27.30;99.90;;;;;;5115140;28;20027;-76
2022/08/23 11:06:54;;;;;;;3.33;0.88;;;27.50;99.90;;;;;;5116778;28;20028;-75
2022/08/23 11:09:20;;;;;;;1.27;0.80;;;27.60;99.90;;;;;;5114147;28;20019;-76
2022/08/23 11:12:14;;;;;;;1.85;0.93;;;27.80;99.90;;;;;;5112305;28;20028;-76
2022/08/23 11:14:45;;;;;;;1.75;0.80;;;27.90;99.90;;;;;;5108968;28;20039;-76
2022/08/23 11:17:25;;;;;;;2.85;0.68;;;27.90;99.90;;;;;;5118929;28;20034;-76
2022/08/23 11:20:07;;;;;;;4.07;0.90;;;28.00;99.90;;;;;;5115158;28;20027;-76
2022/08/23 11:22:55;;;;;;;3.20;1.00;;;27.90;99.90;;;;;;5119060;28;20031;-76
2022/08/23 11:25:24;;;;;;;1.50;1.00;;;27.60;99.90;;;;;;5120251;28;20055;-76
2022/08/23 11:28:10;;;;;;;1.45;0.80;;;27.50;99.90;;;;;;5118399;27;20050;-76
2022/08/23 11:30:43;;;;;;;2.50;0.65;;;27.20;99.90;;;;;;5119819;28;20103;-76
2022/08/23 11:33:14;;;;;;;2.17;0.80;;;27.20;99.90;;;;;;5120596;28;20124;-76
2022/08/23 11:35:48;;;;;;;1.10;0.80;;;27.00;99.90;;;;;;5119294;28;20024;-75
2022/08/23 11:38:17;;;;;;;3.60;0.90;;;27.00;99.90;;;;;;5120175;28;20023;-76
2022/08/23 11:40:49;;;;;;;1.92;0.82;;;27.20;99.90;;;;;;5119268;28;20027;-77
2022/08/23 11:43:30;;;;;;;1.60;0.63;;;27.10;99.90;;;;;;5109877;28;20517;-77
2022/08/23 11:46:20;;;;;;;2.13;0.70;;;27.00;99.90;;;;;;5118092;28;20127;-74
2022/08/23 11:48:59;;;;;;;2.38;0.80;;;27.10;99.90;;;;;;5117592;28;20020;-74
2022/08/23 11:51:56;;;;;;;1.50;0.88;;;27.00;99.90;;;;;;5104486;28;20024;-73
2022/08/23 11:54:41;;;;;;;1.92;0.65;;;27.00;99.90;;;;;;5087444;28;20036;-73
2022/08/23 11:57:36;;;;;;;0.65;0.55;;;27.30;99.90;;;;;;5113338;28;20103;-73
2022/08/23 12:00:14;;;;;;;2.33;0.60;;;27.40;99.90;;;;;;5110323;28;20020;-73
2022/08/23 12:02:46;;;;;;;1.40;0.73;;;27.50;99.90;;;;;;5119135;28;20107;-73
2022/08/23 12:05:31;;;;;;;1.20;0.75;;;27.60;99.90;;;;;;5116839;28;20392;-73
2022/08/23 12:08:03;;;;;;;2.75;0.80;;;27.80;99.90;;;;;;5118744;28;20061;-75
2022/08/23 12:10:41;;;;;;;3.28;0.70;;;27.60;99.90;;;;;;5117298;28;20024;-74
2022/08/23 12:13:19;;;;;;;1.25;0.77;;;27.60;99.90;;;;;;5112027;28;20069;-73
2022/08/23 12:16:03;;;;;;;3.28;0.90;;;27.80;99.90;;;;;;5118393;28;20050;-73
2022/08/23 12:18:31;;;;;;;2.25;1.08;;;28.20;99.90;;;;;;5108142;28;20024;-73
2022/08/23 12:20:59;;;;;;;4.97;1.50;;;28.50;99.90;;;;;;5117181;28;20430;-73
2022/08/23 12:23:26;;;;;;;1.95;0.90;;;28.80;99.90;;;;;;5117728;28;20020;-71
2022/08/23 12:26:03;;;;;;;1.45;0.80;;;28.90;99.90;;;;;;5119463;28;20092;-72
2022/08/23 12:28:42;;;;;;;1.40;0.70;;;28.90;99.90;;;;;;5119464;28;20016;-72
2022/08/23 12:31:20;;;;;;;1.40;0.60;;;28.80;99.90;;;;;;5119247;28;20030;-71
2022/08/23 12:34:08;;;;;;;1.40;0.70;;;28.90;99.90;;;;;;5118310;28;20065;-71
2022/08/23 12:37:02;;;;;;;1.30;0.70;;;28.80;99.90;;;;;;5116723;28;20038;-71
2022/08/23 12:39:35;;;;;;;1.77;0.82;;;28.70;99.90;;;;;;5111604;28;20480;-74
2022/08/23 12:42:14;;;;;;;1.85;0.70;;;28.50;99.40;;;;;;5119281;28;20028;-72
2022/08/23 12:44:41;;;;;;;1.17;0.68;;;28.40;99.50;;;;;;5106332;28;20031;-71
2022/08/23 12:47:16;;;;;;;4.15;0.93;;;28.50;99.90;;;;;;5119252;28;20049;-71
2022/08/23 12:49:56;;;;;;;0.88;0.60;;;28.50;99.90;;;;;;5119049;27;20020;-71
2022/08/23 12:52:27;;;;;;;;;;;28.60;99.90;;;;;;5110057;28;20020;-73
2022/08/23 12:54:56;;;;;;;1.70;0.63;;;28.60;99.80;;;;;;5119318;28;19904;-71
2022/08/23 12:57:31;;;;;;;2.10;1.08;;;28.90;99.80;;;;;;5111806;28;20028;-71
2022/08/23 13:00:16;;;;;;;3.05;1.08;;;29.30;99.90;;;;;;5118545;28;20091;-75
2022/08/23 13:02:50;;;;;;;0.60;0.50;;;29.60;97.30;;;;;;5109752;28;20031;-74
2022/08/23 13:05:39;;;;;;;1.40;0.50;;;29.90;98.20;;;;;;5118630;28;20037;-73
2022/08/23 13:08:09;;;;;;;2.38;1.20;;;30.30;97.10;;;;;;5118809;28;20020;-75
2022/08/23 13:10:38;;;;;;;2.17;0.50;;;30.30;94.30;;;;;;5118780;28;20021;-73
2022/08/23 13:13:04;;;;;;;0.60;0.47;;;30.40;96.00;;;;;;5116183;28;20058;-74
2022/08/23 13:15:46;;;;;;;1.77;0.60;;;30.50;94.90;;;;;;5118199;28;20019;-74
2022/08/23 13:18:38;;;;;;;1.70;0.80;;;30.60;95.70;;;;;;5111570;28;20540;-75